createdAt,value
2018-11-11T00:02:14.641Z,10.30
2018-11-11T00:04:42.707Z,10.30
2018-11-11T00:07:10.772Z,10.30
2018-11-11T00:09:38.835Z,10.20
2018-11-11T00:12:06.931Z,10.30
2018-11-11T00:14:35.014Z,10.20
2018-11-11T00:17:03.091Z,10.20
2018-11-11T00:19:31.173Z,10.10
2018-11-11T00:21:59.266Z,10.00
2018-11-11T00:24:27.343Z,10.00
2018-11-11T00:26:55.429Z,9.90
2018-11-11T00:29:23.502Z,9.90
2018-11-11T00:31:51.573Z,9.90
2018-11-11T00:34:19.651Z,9.80
2018-11-11T00:36:47.730Z,9.80
2018-11-11T00:39:15.779Z,9.80
2018-11-11T00:41:43.851Z,9.70
2018-11-11T00:44:11.911Z,9.70
2018-11-11T00:46:39.987Z,9.70
2018-11-11T00:49:08.418Z,9.70
2018-11-11T00:51:36.526Z,9.80
2018-11-11T00:54:04.614Z,9.70
2018-11-11T00:56:32.663Z,9.70
2018-11-11T00:59:00.724Z,9.70
2018-11-11T01:01:28.774Z,9.60
2018-11-11T01:03:56.843Z,9.60
2018-11-11T01:06:24.893Z,9.60
2018-11-11T01:08:52.972Z,9.60
2018-11-11T01:11:21.007Z,9.60
2018-11-11T01:13:49.058Z,9.70
2018-11-11T01:16:17.136Z,9.60
2018-11-11T01:18:45.176Z,9.70
2018-11-11T01:21:13.239Z,9.70
2018-11-11T01:23:41.276Z,9.60
2018-11-11T01:26:09.350Z,9.70
2018-11-11T01:28:37.423Z,9.70
2018-11-11T01:31:06.091Z,9.70
2018-11-11T01:33:34.160Z,9.80
2018-11-11T01:36:02.215Z,9.80
2018-11-11T01:38:30.282Z,9.80
2018-11-11T01:40:58.323Z,9.80
2018-11-11T01:43:26.402Z,9.80
2018-11-11T01:45:54.462Z,9.80
2018-11-11T01:48:22.547Z,9.80
2018-11-11T01:50:50.594Z,9.80
2018-11-11T01:53:18.655Z,9.80
2018-11-11T01:55:46.734Z,9.80
2018-11-11T01:58:14.779Z,9.80
2018-11-11T02:00:42.839Z,9.80
2018-11-11T02:03:10.891Z,9.80
2018-11-11T02:05:38.942Z,9.80
2018-11-11T02:08:07.098Z,9.80
2018-11-11T02:10:35.158Z,9.90
2018-11-11T02:13:03.209Z,9.90
2018-11-11T02:15:31.271Z,9.90
2018-11-11T02:17:59.326Z,9.90
2018-11-11T02:20:27.384Z,10.00
2018-11-11T02:22:55.449Z,10.00
2018-11-11T02:25:23.491Z,10.00
2018-11-11T02:27:51.550Z,10.00
2018-11-11T02:30:20.892Z,10.00
2018-11-11T02:32:48.954Z,10.00
2018-11-11T02:35:17.073Z,10.00
2018-11-11T02:37:45.436Z,10.10
2018-11-11T02:40:14.627Z,10.00
2018-11-11T02:42:42.908Z,10.10
2018-11-11T02:45:12.300Z,10.10
2018-11-11T02:47:40.338Z,10.10
2018-11-11T02:50:10.296Z,10.10
2018-11-11T02:52:38.666Z,10.10
2018-11-11T02:55:07.138Z,10.00
2018-11-11T02:57:35.418Z,9.90
2018-11-11T03:00:03.506Z,9.80
2018-11-11T03:02:31.562Z,9.80
2018-11-11T03:04:59.611Z,9.70
2018-11-11T03:07:27.686Z,9.70
2018-11-11T03:09:55.739Z,9.70
2018-11-11T03:12:23.803Z,9.70
2018-11-11T03:14:51.881Z,9.80
2018-11-11T03:17:19.932Z,9.90
2018-11-11T03:19:47.983Z,10.00
2018-11-11T03:22:16.043Z,10.00
2018-11-11T03:24:44.111Z,9.90
2018-11-11T03:27:12.190Z,9.90
2018-11-11T03:29:40.459Z,9.90
2018-11-11T03:32:08.524Z,9.90
2018-11-11T03:34:36.649Z,9.90
2018-11-11T03:37:05.635Z,9.80
2018-11-11T03:39:33.687Z,9.80
2018-11-11T03:42:01.847Z,9.70
2018-11-11T03:44:29.923Z,9.70
2018-11-11T03:46:58.007Z,9.80
2018-11-11T03:49:26.085Z,9.70
2018-11-11T03:51:54.126Z,9.70
2018-11-11T03:54:22.187Z,9.70
2018-11-11T03:56:50.269Z,9.70
2018-11-11T03:59:18.396Z,9.70
2018-11-11T04:01:46.449Z,9.70
2018-11-11T04:04:21.217Z,9.60
2018-11-11T04:06:49.282Z,9.60
2018-11-11T04:09:17.331Z,9.50
2018-11-11T04:11:45.414Z,9.40
2018-11-11T04:14:13.472Z,9.40
2018-11-11T04:16:41.514Z,9.30
2018-11-11T04:19:09.986Z,9.30
2018-11-11T04:21:38.066Z,9.30
2018-11-11T04:24:06.658Z,9.30
2018-11-11T04:26:34.718Z,9.40
2018-11-11T04:29:02.805Z,9.40
2018-11-11T04:31:30.900Z,9.40
2018-11-11T04:33:58.962Z,9.40
2018-11-11T04:36:27.023Z,9.50
2018-11-11T04:38:55.076Z,9.60
2018-11-11T04:41:23.127Z,9.60
2018-11-11T04:43:51.199Z,9.60
2018-11-11T04:46:19.309Z,9.60
2018-11-11T04:48:47.335Z,9.70
2018-11-11T04:51:15.388Z,9.70
2018-11-11T04:53:43.462Z,9.70
2018-11-11T04:56:11.514Z,9.80
2018-11-11T04:58:39.599Z,9.80
2018-11-11T05:01:07.659Z,9.80
2018-11-11T05:03:35.748Z,9.70
2018-11-11T05:06:03.830Z,9.70
2018-11-11T05:08:31.879Z,9.70
2018-11-11T05:10:59.976Z,9.80
2018-11-11T05:13:28.047Z,9.80
2018-11-11T05:15:56.124Z,9.90
2018-11-11T05:18:24.211Z,9.90
2018-11-11T05:20:52.280Z,9.90
2018-11-11T05:23:20.341Z,9.90
2018-11-11T05:25:48.387Z,9.90
2018-11-11T05:28:16.458Z,10.00
2018-11-11T05:30:44.536Z,9.90
2018-11-11T05:33:12.603Z,9.90
2018-11-11T05:35:40.654Z,9.90
2018-11-11T05:38:08.720Z,9.90
2018-11-11T05:40:36.770Z,9.90
2018-11-11T05:43:04.887Z,10.00
2018-11-11T05:45:32.946Z,10.00
2018-11-11T05:48:01.018Z,10.10
2018-11-11T05:50:29.090Z,10.10
2018-11-11T05:52:57.155Z,10.10
2018-11-11T05:55:25.227Z,10.20
2018-11-11T05:57:53.303Z,10.20
2018-11-11T06:00:21.376Z,10.20
2018-11-11T06:02:49.426Z,10.20
2018-11-11T06:05:17.482Z,10.10
2018-11-11T06:07:45.551Z,10.00
2018-11-11T06:10:14.563Z,9.90
2018-11-11T06:12:42.627Z,9.90
2018-11-11T06:15:11.723Z,9.90
2018-11-11T06:17:39.791Z,9.90
2018-11-11T06:20:10.327Z,9.90
2018-11-11T06:22:38.419Z,9.90
2018-11-11T06:25:07.066Z,9.90
2018-11-11T06:27:35.271Z,9.90
2018-11-11T06:30:03.220Z,9.90
2018-11-11T06:32:31.311Z,10.00
2018-11-11T06:34:59.368Z,10.00
2018-11-11T06:37:27.445Z,10.00
2018-11-11T06:39:55.518Z,10.00
2018-11-11T06:42:23.583Z,10.10
2018-11-11T06:44:51.679Z,10.10
2018-11-11T06:47:19.740Z,10.10
2018-11-11T06:49:47.831Z,10.10
2018-11-11T06:52:15.902Z,10.20
2018-11-11T06:54:43.991Z,10.20
2018-11-11T06:57:12.059Z,10.20
2018-11-11T06:59:40.291Z,10.30
2018-11-11T07:02:08.414Z,10.20
2018-11-11T07:04:36.470Z,10.10
2018-11-11T07:07:04.558Z,10.10
2018-11-11T07:09:32.627Z,10.20
2018-11-11T07:12:00.693Z,10.20
2018-11-11T07:14:28.742Z,10.30
2018-11-11T07:16:56.805Z,10.30
2018-11-11T07:19:24.859Z,10.30
2018-11-11T07:21:52.922Z,10.30
2018-11-11T07:24:20.975Z,10.30
2018-11-11T07:26:49.035Z,10.40
2018-11-11T07:29:17.093Z,10.40
2018-11-11T07:31:45.159Z,10.40
2018-11-11T07:34:13.250Z,10.50
2018-11-11T07:36:41.310Z,10.50
2018-11-11T07:39:11.894Z,10.60
2018-11-11T07:41:39.950Z,10.50
2018-11-11T07:44:08.018Z,10.50
2018-11-11T07:46:36.067Z,10.60
2018-11-11T07:49:04.122Z,10.50
2018-11-11T07:51:32.166Z,10.50
2018-11-11T07:54:00.226Z,10.40
2018-11-11T07:56:28.306Z,10.40
2018-11-11T07:58:56.372Z,10.50
2018-11-11T08:01:24.464Z,10.50
2018-11-11T08:03:52.482Z,10.50
2018-11-11T08:06:20.531Z,10.50
2018-11-11T08:08:48.594Z,10.50
2018-11-11T08:11:28.239Z,10.50
2018-11-11T08:13:56.315Z,10.40
2018-11-11T08:16:24.367Z,10.50
2018-11-11T08:18:52.491Z,10.50
2018-11-11T08:21:20.551Z,10.50
2018-11-11T08:23:48.698Z,10.50
2018-11-11T08:26:16.759Z,10.50
2018-11-11T08:28:44.850Z,10.60
2018-11-11T08:31:12.942Z,10.70
2018-11-11T08:33:41.091Z,10.80
2018-11-11T08:36:09.174Z,10.80
2018-11-11T08:38:37.355Z,10.90
2018-11-11T08:41:05.578Z,10.90
2018-11-11T08:43:33.629Z,10.90
2018-11-11T08:46:01.779Z,11.00
2018-11-11T08:48:29.829Z,11.00
2018-11-11T08:50:57.875Z,11.10
2018-11-11T08:53:25.930Z,11.10
2018-11-11T08:55:54.046Z,11.20
2018-11-11T08:58:22.149Z,11.40
2018-11-11T09:00:50.208Z,11.40
2018-11-11T09:03:18.254Z,11.60
2018-11-11T09:05:47.083Z,11.70
2018-11-11T09:08:15.222Z,11.70
2018-11-11T09:10:43.299Z,11.70
2018-11-11T09:13:14.300Z,11.80
2018-11-11T09:15:42.429Z,11.90
2018-11-11T09:18:10.487Z,11.90
2018-11-11T09:20:38.567Z,11.90
2018-11-11T09:23:06.627Z,11.90
2018-11-11T09:25:34.683Z,11.90
2018-11-11T09:28:02.771Z,11.90
2018-11-11T09:30:30.944Z,11.90
2018-11-11T09:32:58.911Z,12.00
2018-11-11T09:35:27.001Z,11.90
2018-11-11T09:37:55.013Z,11.90
2018-11-11T09:40:23.138Z,12.00
2018-11-11T09:42:51.198Z,12.10
2018-11-11T09:45:19.288Z,12.10
2018-11-11T09:47:47.393Z,12.10
2018-11-11T09:50:17.006Z,12.00
2018-11-11T09:52:45.231Z,12.00
2018-11-11T09:55:14.287Z,12.10
2018-11-11T09:57:42.456Z,12.10
2018-11-11T10:00:13.310Z,12.20
2018-11-11T10:02:42.074Z,12.30
2018-11-11T10:05:15.288Z,12.40
2018-11-11T10:07:48.967Z,12.40
2018-11-11T10:10:39.366Z,12.50
2018-11-11T10:13:12.008Z,12.50
2018-11-11T10:15:47.695Z,12.50
2018-11-11T10:20:28.277Z,12.60
2018-11-11T10:23:03.046Z,12.70
2018-11-11T10:25:35.201Z,13.00
2018-11-11T10:28:23.830Z,13.10
2018-11-11T10:31:13.534Z,13.10
2018-11-11T10:33:47.026Z,13.20
2018-11-11T10:36:20.342Z,13.30
2018-11-11T10:38:52.462Z,13.40
2018-11-11T10:41:25.775Z,13.50
2018-11-11T10:43:56.598Z,13.60
2018-11-11T10:46:56.415Z,13.60
2018-11-11T10:49:42.607Z,13.60
2018-11-11T10:52:10.686Z,13.60
2018-11-11T10:54:38.718Z,13.60
2018-11-11T10:57:06.803Z,13.50
2018-11-11T10:59:34.859Z,13.60
2018-11-11T11:02:08.310Z,13.70
2018-11-11T11:04:40.619Z,13.80
2018-11-11T11:07:08.682Z,13.90
2018-11-11T11:09:36.734Z,14.00
2018-11-11T11:12:04.787Z,14.20
2018-11-11T11:14:32.847Z,14.30
2018-11-11T11:17:00.911Z,14.60
2018-11-11T11:19:28.977Z,14.80
2018-11-11T11:21:57.252Z,15.00
2018-11-11T11:24:25.317Z,15.50
2018-11-11T11:26:53.376Z,16.70
2018-11-11T11:29:21.428Z,17.30
2018-11-11T11:31:49.499Z,18.00
2018-11-11T11:34:17.735Z,18.20
2018-11-11T11:36:45.798Z,17.60
2018-11-11T11:39:13.879Z,17.10
2018-11-11T11:41:41.932Z,16.90
2018-11-11T11:44:10.093Z,17.70
2018-11-11T11:46:38.090Z,18.20
2018-11-11T11:49:06.149Z,18.00
2018-11-11T11:51:34.215Z,17.50
2018-11-11T11:54:02.299Z,16.80
2018-11-11T11:56:30.487Z,16.40
2018-11-11T11:58:58.535Z,16.10
2018-11-11T12:01:26.590Z,15.80
2018-11-11T12:03:54.639Z,15.70
2018-11-11T12:06:22.678Z,15.60
2018-11-11T12:08:50.889Z,15.60
2018-11-11T12:11:18.808Z,15.60
2018-11-11T12:13:46.884Z,15.70
2018-11-11T12:16:14.933Z,15.60
2018-11-11T12:18:42.985Z,15.60
2018-11-11T12:21:11.035Z,15.60
2018-11-11T12:23:39.123Z,15.60
2018-11-11T12:26:07.170Z,15.50
2018-11-11T12:28:35.223Z,15.40
2018-11-11T12:31:03.278Z,15.40
2018-11-11T12:33:31.342Z,15.40
2018-11-11T12:35:59.403Z,15.40
2018-11-11T12:38:27.458Z,15.50
2018-11-11T12:40:55.541Z,15.50
2018-11-11T12:43:23.635Z,15.50
2018-11-11T12:45:51.646Z,15.50
2018-11-11T12:48:19.702Z,15.60
2018-11-11T12:50:47.770Z,15.70
2018-11-11T12:53:15.819Z,16.00
2018-11-11T12:55:43.877Z,16.40
2018-11-11T12:58:11.951Z,16.60
2018-11-11T13:00:40.065Z,16.70
2018-11-11T13:03:08.090Z,16.40
2018-11-11T13:05:36.164Z,16.10
2018-11-11T13:08:04.328Z,15.90
2018-11-11T13:10:32.386Z,15.90
2018-11-11T13:13:00.451Z,15.80
2018-11-11T13:15:28.502Z,15.80
2018-11-11T13:17:56.563Z,15.70
2018-11-11T13:20:24.627Z,15.70
2018-11-11T13:22:52.821Z,15.60
2018-11-11T13:25:20.763Z,15.60
2018-11-11T13:27:48.823Z,15.60
2018-11-11T13:30:16.887Z,15.50
2018-11-11T13:32:44.942Z,15.50
2018-11-11T13:35:15.206Z,15.40
2018-11-11T13:37:43.450Z,15.40
2018-11-11T13:40:14.047Z,15.30
2018-11-11T13:42:42.283Z,15.30
2018-11-11T13:45:13.238Z,15.20
2018-11-11T13:47:41.921Z,15.20
2018-11-11T13:50:13.276Z,15.20
2018-11-11T13:52:41.319Z,15.20
2018-11-11T13:55:11.010Z,15.20
2018-11-11T13:57:39.235Z,15.20
2018-11-11T14:00:14.046Z,15.20
2018-11-11T14:02:42.223Z,15.20
2018-11-11T14:05:10.197Z,15.30
2018-11-11T14:07:38.370Z,15.30
2018-11-11T14:10:07.979Z,15.30
2018-11-11T14:12:36.463Z,15.40
2018-11-11T14:15:06.234Z,15.40
2018-11-11T14:17:34.306Z,15.40
2018-11-11T14:20:02.387Z,15.40
2018-11-11T14:22:30.443Z,15.40
2018-11-11T14:24:58.540Z,15.40
2018-11-11T14:27:26.731Z,15.40
2018-11-11T14:29:54.847Z,15.40
2018-11-11T14:32:23.037Z,15.40
2018-11-11T14:34:51.082Z,15.30
2018-11-11T14:37:19.096Z,15.30
2018-11-11T14:39:47.226Z,15.20
2018-11-11T14:42:15.322Z,15.70
2018-11-11T14:44:43.395Z,16.60
2018-11-11T14:47:17.296Z,17.60
2018-11-11T14:49:45.407Z,18.20
2018-11-11T14:52:13.664Z,18.80
2018-11-11T14:54:41.659Z,19.30
2018-11-11T14:57:09.751Z,19.50
2018-11-11T14:59:37.819Z,19.60
2018-11-11T15:02:06.091Z,19.70
2018-11-11T15:04:34.238Z,19.50
2018-11-11T15:07:02.439Z,19.00
2018-11-11T15:09:30.503Z,18.20
2018-11-11T15:11:58.588Z,17.60
2018-11-11T15:14:26.756Z,16.80
2018-11-11T15:16:54.921Z,16.40
2018-11-11T15:19:23.428Z,16.00
2018-11-11T15:21:51.362Z,15.90
2018-11-11T15:24:19.430Z,15.90
2018-11-11T15:26:48.431Z,15.70
2018-11-11T15:29:17.108Z,15.30
2018-11-11T15:31:45.159Z,15.00
2018-11-11T15:34:13.222Z,14.70
2018-11-11T15:36:41.282Z,14.50
2018-11-11T15:39:10.555Z,14.30
2018-11-11T15:41:38.956Z,14.10
2018-11-11T15:44:07.170Z,14.00
2018-11-11T15:46:35.278Z,13.90
2018-11-11T15:49:03.510Z,13.80
2018-11-11T15:51:31.619Z,13.70
2018-11-11T15:53:59.683Z,13.60
2018-11-11T15:56:27.851Z,13.50
2018-11-11T15:58:55.948Z,13.50
2018-11-11T16:01:23.975Z,13.40
2018-11-11T16:03:52.052Z,13.30
2018-11-11T16:06:20.135Z,13.20
2018-11-11T16:08:48.159Z,13.10
2018-11-11T16:11:16.231Z,13.00
2018-11-11T16:13:44.323Z,12.90
2018-11-11T16:16:12.403Z,12.80
2018-11-11T16:18:40.562Z,12.80
2018-11-11T16:21:08.550Z,12.80
2018-11-11T16:23:36.695Z,12.70
2018-11-11T16:26:04.675Z,12.60
2018-11-11T16:28:32.722Z,12.60
2018-11-11T16:31:00.811Z,12.60
2018-11-11T16:33:28.911Z,12.60
2018-11-11T16:35:56.956Z,12.50
2018-11-11T16:38:25.054Z,12.50
2018-11-11T16:40:53.174Z,12.40
2018-11-11T16:43:21.196Z,12.40
2018-11-11T16:45:49.246Z,12.30
2018-11-11T16:48:17.331Z,12.30
2018-11-11T16:50:45.385Z,12.30
2018-11-11T16:53:13.626Z,12.20
2018-11-11T16:55:41.526Z,12.20
2018-11-11T16:58:09.604Z,12.00
2018-11-11T17:00:38.257Z,12.00
2018-11-11T17:03:07.263Z,11.90
2018-11-11T17:05:36.457Z,11.70
2018-11-11T17:08:04.731Z,11.60
2018-11-11T17:10:34.027Z,11.60
2018-11-11T17:13:03.939Z,11.50
2018-11-11T17:15:32.631Z,11.50
2018-11-11T17:18:00.703Z,11.40
2018-11-11T17:20:29.031Z,11.40
2018-11-11T17:22:58.447Z,11.40
2018-11-11T17:25:26.959Z,11.40
2018-11-11T17:27:55.167Z,11.40
2018-11-11T17:30:27.408Z,11.40
2018-11-11T17:32:55.957Z,11.50
2018-11-11T17:35:23.960Z,11.50
2018-11-11T17:37:52.043Z,11.50
2018-11-11T17:40:21.472Z,11.50
2018-11-11T17:42:50.531Z,11.50
2018-11-11T17:45:18.919Z,11.50
2018-11-11T17:47:47.698Z,11.50
2018-11-11T17:50:17.816Z,11.50
2018-11-11T17:52:45.870Z,11.40
2018-11-11T17:55:15.499Z,11.30
2018-11-11T17:57:44.078Z,11.20
2018-11-11T18:00:14.515Z,11.10
2018-11-11T18:02:42.915Z,11.00
2018-11-11T18:05:12.187Z,10.90
2018-11-11T18:07:40.275Z,10.90
2018-11-11T18:10:10.282Z,10.90
2018-11-11T18:12:38.562Z,10.90
2018-11-11T18:15:07.693Z,11.00
2018-11-11T18:17:35.756Z,11.00
2018-11-11T18:20:04.285Z,11.00
2018-11-11T18:22:32.318Z,11.10
2018-11-11T18:25:00.406Z,11.20
2018-11-11T18:27:28.562Z,11.40
2018-11-11T18:29:56.526Z,11.40
2018-11-11T18:32:24.596Z,11.50
2018-11-11T18:34:52.652Z,11.50
2018-11-11T18:37:20.730Z,11.60
2018-11-11T18:39:48.813Z,11.50
2018-11-11T18:42:16.903Z,11.50
2018-11-11T18:44:44.953Z,11.40
2018-11-11T18:47:13.023Z,11.40
2018-11-11T18:49:41.094Z,11.40
2018-11-11T18:52:09.175Z,11.50
2018-11-11T18:54:37.238Z,11.50
2018-11-11T18:57:05.769Z,11.50
2018-11-11T18:59:33.931Z,11.50
2018-11-11T19:02:01.981Z,11.50
2018-11-11T19:04:30.036Z,11.50
2018-11-11T19:06:58.095Z,11.50
2018-11-11T19:09:26.163Z,11.40
2018-11-11T19:11:54.270Z,11.50
2018-11-11T19:14:22.327Z,11.50
2018-11-11T19:16:50.402Z,11.50
2018-11-11T19:19:18.470Z,11.50
2018-11-11T19:21:46.627Z,11.50
2018-11-11T19:24:14.693Z,11.50
2018-11-11T19:26:42.744Z,11.50
2018-11-11T19:29:10.804Z,11.50
2018-11-11T19:31:38.875Z,11.50
2018-11-11T19:34:06.947Z,11.40
2018-11-11T19:36:35.007Z,11.40
2018-11-11T19:39:03.578Z,11.40
2018-11-11T19:41:31.733Z,11.40
2018-11-11T19:43:59.721Z,11.40
2018-11-11T19:46:27.783Z,11.40
2018-11-11T19:48:55.856Z,11.40
2018-11-11T19:51:23.941Z,11.50
2018-11-11T19:53:51.991Z,11.40
2018-11-11T19:56:20.067Z,11.40
2018-11-11T19:58:48.183Z,11.40
2018-11-11T20:01:16.246Z,11.30
2018-11-11T20:03:44.311Z,11.40
2018-11-11T20:06:12.419Z,11.40
2018-11-11T20:08:40.519Z,11.40
2018-11-11T20:11:08.661Z,11.40
2018-11-11T20:13:36.715Z,11.50
2018-11-11T20:16:05.126Z,11.50
2018-11-11T20:18:33.183Z,11.50
2018-11-11T20:21:01.251Z,11.50
2018-11-11T20:23:29.326Z,11.50
2018-11-11T20:25:57.392Z,11.50
2018-11-11T20:28:25.473Z,11.60
2018-11-11T20:30:53.546Z,11.60
2018-11-11T20:33:21.667Z,11.60
2018-11-11T20:35:49.783Z,11.60
2018-11-11T20:38:17.811Z,11.60
2018-11-11T20:40:45.866Z,11.60
2018-11-11T20:43:14.007Z,11.60
2018-11-11T20:45:42.028Z,11.60
2018-11-11T20:48:10.099Z,11.60
2018-11-11T20:50:38.190Z,11.60
2018-11-11T20:53:06.727Z,11.50
2018-11-11T20:55:35.019Z,11.60
2018-11-11T20:58:03.363Z,11.50
2018-11-11T21:00:35.945Z,11.50
2018-11-11T21:03:04.166Z,11.50
2018-11-11T21:05:32.399Z,11.50
2018-11-11T21:08:00.562Z,11.50
2018-11-11T21:10:29.200Z,11.50
2018-11-11T21:12:57.638Z,11.40
2018-11-11T21:15:26.953Z,11.30
2018-11-11T21:17:55.010Z,11.20
2018-11-11T21:20:24.602Z,11.10
2018-11-11T21:22:52.807Z,11.00
2018-11-11T21:25:21.027Z,11.00
2018-11-11T21:27:49.861Z,11.00
2018-11-11T21:30:19.258Z,10.90
2018-11-11T21:32:47.673Z,10.90
2018-11-11T21:35:15.682Z,10.90
2018-11-11T21:37:43.798Z,10.90
2018-11-11T21:40:14.815Z,10.90
2018-11-11T21:42:43.610Z,10.80
2018-11-11T21:45:12.947Z,10.80
2018-11-11T21:47:41.391Z,10.80
2018-11-11T21:50:11.403Z,10.70
2018-11-11T21:52:39.502Z,10.80
2018-11-11T21:55:07.780Z,10.90
2018-11-11T21:57:36.044Z,11.00
2018-11-11T22:00:04.594Z,11.10
2018-11-11T22:02:32.663Z,11.10
2018-11-11T22:05:00.754Z,11.10
2018-11-11T22:07:29.151Z,11.20
2018-11-11T22:09:57.280Z,11.20
2018-11-11T22:12:25.312Z,11.20
2018-11-11T22:14:53.390Z,11.30
2018-11-11T22:17:21.459Z,11.30
2018-11-11T22:19:49.523Z,11.30
2018-11-11T22:22:17.604Z,11.30
2018-11-11T22:24:45.650Z,11.30
2018-11-11T22:27:13.754Z,11.30
2018-11-11T22:29:41.812Z,11.40
2018-11-11T22:32:09.923Z,11.30
2018-11-11T22:34:38.007Z,11.30
2018-11-11T22:37:06.826Z,11.20
2018-11-11T22:39:35.002Z,11.20
2018-11-11T22:42:03.129Z,11.30
2018-11-11T22:44:31.222Z,11.30
2018-11-11T22:46:59.289Z,11.30
2018-11-11T22:49:27.459Z,11.30
2018-11-11T22:51:55.502Z,11.30
2018-11-11T22:54:23.570Z,11.40
2018-11-11T22:56:51.651Z,11.50
2018-11-11T22:59:19.732Z,11.50
2018-11-11T23:01:47.898Z,11.50
2018-11-11T23:04:16.262Z,11.50
2018-11-11T23:06:44.338Z,11.50
2018-11-11T23:09:12.631Z,11.50
2018-11-11T23:11:40.848Z,11.40
2018-11-11T23:14:09.435Z,11.40
2018-11-11T23:16:37.531Z,11.40
2018-11-11T23:19:05.787Z,11.30
2018-11-11T23:21:33.897Z,11.30
2018-11-11T23:24:01.985Z,11.30
2018-11-11T23:26:30.067Z,11.30
2018-11-11T23:28:58.279Z,11.30
2018-11-11T23:31:26.342Z,11.20
2018-11-11T23:33:54.407Z,11.20
2018-11-11T23:36:22.475Z,11.20
2018-11-11T23:38:50.531Z,11.20
2018-11-11T23:41:18.672Z,11.20
2018-11-11T23:43:46.824Z,11.20
2018-11-11T23:46:14.911Z,11.20
2018-11-11T23:48:42.962Z,11.20
2018-11-11T23:51:11.027Z,11.20
2018-11-11T23:53:39.111Z,11.20
2018-11-11T23:56:07.162Z,11.20
2018-11-11T23:58:35.247Z,11.20
